Sanko Independence — A8QJ9 — position and weather

sailwx.info

Track history (hours):
 
Tides and Currents Weather Stations Pressure Air Temp Water Temp Dewpoint Dewpoint Depression Visibility Wind Speed Wind Dir Waves Ship Positions

Sanko Independence

Last reported at 2016-May-27 12:15 UTC. Time now 2016-May-30 08:47 UTC.
Position N 10°54' W 061°25'.

Length 174 m; draft 10.4 m.

Type: Ship (hazmat cat C). MMSI: 636013946.

Date/timePositionNaut miles runAvg speedWind from/ knotsBaromVisibWave heightAir tempDewpointWater temp
2016-May-27 12:15N 10°54' W 061°25'1115.4
2016-May-27 11:34N 10°49' W 061°35'1514.8
2016-May-27 10:33N 10°40' W 061°47'1514.8
2016-May-27 09:33N 10°28' W 061°39'10 9.9
2016-May-27 08:34N 10°24' W 061°30'0 0.4
2016-May-27 07:32N 10°24' W 061°30'0 0.0
2016-May-27 06:33N 10°24' W 061°30'0 0.0
2016-May-27 05:33N 10°24' W 061°30'0 0.0
2016-May-27 04:33N 10°24' W 061°30'0 0.0
2016-May-27 03:33N 10°24' W 061°30'0 0.0
2016-May-27 02:33N 10°24' W 061°30'0 0.0
2016-May-27 01:33N 10°24' W 061°30'0 0.0
2016-May-27 00:33N 10°24' W 061°30'0 0.0
2016-May-26 23:33N 10°24' W 061°30'0 0.0
2016-May-26 22:33N 10°24' W 061°30'0 0.0
2016-May-26 21:33N 10°24' W 061°30'0 0.0
2016-May-26 20:30N 10°24' W 061°30'0 0.0
2016-May-26 19:33N 10°24' W 061°30'0 0.0
2016-May-26 18:33N 10°24' W 061°30'0 0.0
2016-May-26 17:33N 10°24' W 061°30'0 0.0
2016-May-26 16:33N 10°24' W 061°30'0 0.0
2016-May-26 15:33N 10°24' W 061°30'0 0.0
2016-May-26 14:33N 10°24' W 061°30'0 0.0
2016-May-26 13:30N 10°24' W 061°30'0 0.0
2016-May-26 12:33N 10°24' W 061°30'0 0.0
2016-May-26 11:33N 10°24' W 061°30'0 0.0
2016-May-26 10:33N 10°24' W 061°30'0 0.0
2016-May-26 09:33N 10°24' W 061°30'0 0.0
2016-May-26 08:33N 10°24' W 061°30'0 0.0
2016-May-26 07:33N 10°24' W 061°30'0 0.0
2016-May-26 06:33N 10°24' W 061°30'0 0.0
2016-May-26 05:33N 10°24' W 061°30'0 0.0
2016-May-26 04:33N 10°24' W 061°30'0 0.0
2016-May-26 03:33N 10°24' W 061°30'0 0.0
2016-May-26 02:33N 10°24' W 061°30'0 0.0
2016-May-26 01:33N 10°24' W 061°30'0 0.0
2016-May-26 00:27N 10°24' W 061°30'0 0.0
2016-May-25 23:33N 10°24' W 061°30'0 0.0
2016-May-25 22:33N 10°24' W 061°30'0 0.0
2016-May-25 21:33N 10°24' W 061°30'0 0.2
2016-May-25 20:33N 10°24' W 061°30'3 1.6
2016-May-25 18:31N 10°23' W 061°33'0 0.0
2016-May-25 17:31N 10°23' W 061°33'0 0.0
2016-May-25 16:28N 10°23' W 061°33'0 0.0
2016-May-25 15:31N 10°23' W 061°33'0 0.0
2016-May-25 14:31N 10°23' W 061°33'0 0.0
2016-May-25 13:31N 10°23' W 061°33'0 0.0
2016-May-25 12:31N 10°23' W 061°33'0 0.0
2016-May-25 11:31N 10°23' W 061°33'0 0.0
2016-May-25 10:31N 10°23' W 061°33'0 0.0
2016-May-25 09:31N 10°23' W 061°33'0 0.0
2016-May-25 08:31N 10°23' W 061°33'0 0.0
2016-May-25 07:31N 10°23' W 061°33'0 0.0
2016-May-25 06:31N 10°23' W 061°33'0 0.0
2016-May-25 05:31N 10°23' W 061°33'0 0.0
2016-May-25 04:31N 10°23' W 061°33'0 0.0
2016-May-25 03:31N 10°23' W 061°33'0 0.0
2016-May-25 02:31N 10°23' W 061°33'0 0.0
2016-May-25 01:31N 10°23' W 061°33'0 0.0
2016-May-25 00:31N 10°23' W 061°33'0 0.0
2016-May-24 23:31N 10°23' W 061°33'0 0.0
2016-May-24 22:31N 10°23' W 061°33'0 0.0
2016-May-24 21:31N 10°23' W 061°33'0 0.0
2016-May-24 20:31N 10°23' W 061°33'0 0.0
2016-May-24 19:31N 10°24' W 061°33'0 0.0
2016-May-24 18:31N 10°24' W 061°33'0 0.0
2016-May-24 17:31N 10°24' W 061°33'0 0.1
2016-May-24 16:31N 10°24' W 061°33'0 0.0
2016-May-24 15:31N 10°24' W 061°33'4 3.7
2016-May-24 14:33N 10°26' W 061°35'8 8.4
2016-May-24 13:33N 10°33' W 061°41'9 9.4
2016-May-24 12:33N 10°40' W 061°47'10 9.9
2016-May-24 11:34N 10°47' W 061°40'1211.5
2016-May-24 10:32N 10°51' W 061°29'1212.5
2016-May-24 09:33N 10°56' W 061°17'  
Track history (hours):
 
Tides and Currents Weather Stations Pressure Air Temp Water Temp Dewpoint Dewpoint Depression Visibility Wind Speed Wind Dir Waves Ship Positions

Sanko Independence

Last reported at 2016-May-27 12:15 UTC. Time now 2016-May-30 08:47 UTC.
Position N 10°54' W 061°25'.

Length 174 m; draft 10.4 m.

Type: Ship (hazmat cat C). MMSI: 636013946.

Date/timePositionNaut miles runAvg speedWind from/ knotsBaromVisibWave heightAir tempDewpointWater temp
2016-May-27 12:15N 10°54' W 061°25'1115.4
2016-May-27 11:34N 10°49' W 061°35'1514.8
2016-May-27 10:33N 10°40' W 061°47'1514.8
2016-May-27 09:33N 10°28' W 061°39'10 9.9
2016-May-27 08:34N 10°24' W 061°30'0 0.4
2016-May-27 07:32N 10°24' W 061°30'0 0.0
2016-May-27 06:33N 10°24' W 061°30'0 0.0
2016-May-27 05:33N 10°24' W 061°30'0 0.0
2016-May-27 04:33N 10°24' W 061°30'0 0.0
2016-May-27 03:33N 10°24' W 061°30'0 0.0
2016-May-27 02:33N 10°24' W 061°30'0 0.0
2016-May-27 01:33N 10°24' W 061°30'0 0.0
2016-May-27 00:33N 10°24' W 061°30'0 0.0
2016-May-26 23:33N 10°24' W 061°30'0 0.0
2016-May-26 22:33N 10°24' W 061°30'0 0.0
2016-May-26 21:33N 10°24' W 061°30'0 0.0
2016-May-26 20:30N 10°24' W 061°30'0 0.0
2016-May-26 19:33N 10°24' W 061°30'0 0.0
2016-May-26 18:33N 10°24' W 061°30'0 0.0
2016-May-26 17:33N 10°24' W 061°30'0 0.0
2016-May-26 16:33N 10°24' W 061°30'0 0.0
2016-May-26 15:33N 10°24' W 061°30'0 0.0
2016-May-26 14:33N 10°24' W 061°30'0 0.0
2016-May-26 13:30N 10°24' W 061°30'0 0.0
2016-May-26 12:33N 10°24' W 061°30'0 0.0
2016-May-26 11:33N 10°24' W 061°30'0 0.0
2016-May-26 10:33N 10°24' W 061°30'0 0.0
2016-May-26 09:33N 10°24' W 061°30'0 0.0
2016-May-26 08:33N 10°24' W 061°30'0 0.0
2016-May-26 07:33N 10°24' W 061°30'0 0.0
2016-May-26 06:33N 10°24' W 061°30'0 0.0
2016-May-26 05:33N 10°24' W 061°30'0 0.0
2016-May-26 04:33N 10°24' W 061°30'0 0.0
2016-May-26 03:33N 10°24' W 061°30'0 0.0
2016-May-26 02:33N 10°24' W 061°30'0 0.0
2016-May-26 01:33N 10°24' W 061°30'0 0.0
2016-May-26 00:27N 10°24' W 061°30'0 0.0
2016-May-25 23:33N 10°24' W 061°30'0 0.0
2016-May-25 22:33N 10°24' W 061°30'0 0.0
2016-May-25 21:33N 10°24' W 061°30'0 0.2
2016-May-25 20:33N 10°24' W 061°30'3 1.6
2016-May-25 18:31N 10°23' W 061°33'0 0.0
2016-May-25 17:31N 10°23' W 061°33'0 0.0
2016-May-25 16:28N 10°23' W 061°33'0 0.0
2016-May-25 15:31N 10°23' W 061°33'0 0.0
2016-May-25 14:31N 10°23' W 061°33'0 0.0
2016-May-25 13:31N 10°23' W 061°33'0 0.0
2016-May-25 12:31N 10°23' W 061°33'0 0.0
2016-May-25 11:31N 10°23' W 061°33'0 0.0
2016-May-25 10:31N 10°23' W 061°33'0 0.0
2016-May-25 09:31N 10°23' W 061°33'0 0.0
2016-May-25 08:31N 10°23' W 061°33'0 0.0
2016-May-25 07:31N 10°23' W 061°33'0 0.0
2016-May-25 06:31N 10°23' W 061°33'0 0.0
2016-May-25 05:31N 10°23' W 061°33'0 0.0
2016-May-25 04:31N 10°23' W 061°33'0 0.0
2016-May-25 03:31N 10°23' W 061°33'0 0.0
2016-May-25 02:31N 10°23' W 061°33'0 0.0
2016-May-25 01:31N 10°23' W 061°33'0 0.0
2016-May-25 00:31N 10°23' W 061°33'0 0.0
2016-May-24 23:31N 10°23' W 061°33'0 0.0
2016-May-24 22:31N 10°23' W 061°33'0 0.0
2016-May-24 21:31N 10°23' W 061°33'0 0.0
2016-May-24 20:31N 10°23' W 061°33'0 0.0
2016-May-24 19:31N 10°24' W 061°33'0 0.0
2016-May-24 18:31N 10°24' W 061°33'0 0.0
2016-May-24 17:31N 10°24' W 061°33'0 0.1
2016-May-24 16:31N 10°24' W 061°33'0 0.0
2016-May-24 15:31N 10°24' W 061°33'4 3.7
2016-May-24 14:33N 10°26' W 061°35'8 8.4
2016-May-24 13:33N 10°33' W 061°41'9 9.4
2016-May-24 12:33N 10°40' W 061°47'10 9.9
2016-May-24 11:34N 10°47' W 061°40'1211.5
2016-May-24 10:32N 10°51' W 061°29'1212.5
2016-May-24 09:33N 10°56' W 061°17'  

Dump ship's entire track history